Latest Weather Observations for Wilcannia Airport

IDN60801

Issued at 6:05 pm EDT Tuesday 3 March 2015 (issued every 30 minutes, with the page automatically refreshed every 10 minutes)

About weather observations | Map of weather stations | Latest weather observations for NSW | Other Formats
Station Details ID: 046012 Name: WILCANNIA AERODROME AWS Lat: -31.52 Lon: 143.38 Height: 94.3 m
Data from the previous 72 hours. | See also: Recent months for locations in New South Wales
Date/Time
EDT
Temp
°C
App
Temp
°C
Dew
Point
Rel
Hum
%
Delta-T
°C
Wind Press
QNH
hPa
Press
MSL
hPa
Rain
since 9 am
mm
Dir
 
Spd
km/h
Gust
km/h
Spd
kts
Gust
kts
03/06:00pm 34.7 28.3 1.1 12 16.9 SSW 24 39 13 21 1011.5 1011.1 0.0
03/05:30pm 35.3 29.0 1.6 12 17.2 SSW 24 37 13 20 1011.3 1010.9 0.0
03/05:00pm 36.0 30.4 0.9 11 17.8 S 20 37 11 20 1011.2 1010.8 0.0
03/04:30pm 36.2 30.6 1.1 11 17.8 S 20 37 11 20 1011.3 1010.9 0.0
03/04:00pm 36.1 30.1 1.0 11 17.8 SSW 22 33 12 18 1011.5 1011.1 0.0
03/03:30pm 36.0 28.8 0.9 11 17.8 SSW 28 39 15 21 1011.9 1011.5 0.0
03/03:00pm 35.5 29.8 0.6 11 17.5 SSW 20 35 11 19 1012.3 1011.9 0.0
03/02:30pm 35.7 30.4 1.9 12 17.3 S 19 33 10 18 1012.5 1012.1 0.0
03/02:00pm 34.3 28.3 0.8 12 16.8 S 22 33 12 18 1012.7 1012.3 0.0
03/01:30pm 34.0 27.7 1.7 13 16.4 S 24 41 13 22 1013.1 1012.6 0.0
03/01:00pm 34.2 28.0 1.9 13 16.4 SSW 24 37 13 20 1013.5 1013.0 0.0
03/12:30pm 33.3 26.6 1.2 13 16.1 SSW 26 35 14 19 1013.9 1013.4 0.0
03/12:00pm 32.8 26.2 1.8 14 15.6 S 26 35 14 19 1014.2 1013.7 0.0
03/11:30am 31.7 24.8 2.8 16 14.7 S 28 41 15 22 1014.2 1013.7 0.0
03/11:00am 30.6 25.5 5.8 21 13.2 SSW 22 32 12 17 1014.1 1013.6 0.0
03/10:30am 28.7 23.5 5.5 23 12.1 S 22 28 12 15 1014.0 1013.5 0.0
03/10:00am 27.1 22.4 6.0 26 11.0 SSW 20 28 11 15 1013.8 1013.3 0.0
03/09:30am 25.0 19.6 4.7 27 10.2 S 22 30 12 16 1013.6 1013.1 0.0
03/09:00am 22.9 17.8 3.9 29 9.3 SSW 20 28 11 15 1013.6 1013.1 0.0
03/08:30am 20.7 15.4 2.0 29 8.7 SSW 19 24 10 13 1013.5 1013.0 0.0
03/08:00am 18.5 13.8 1.1 31 7.8 SW 15 19 8 10 1013.1 1012.6 0.0
03/07:30am 17.1 12.7 0.3 32 7.3 SW 13 15 7 8 1012.4 1012.0 0.0
03/07:00am 17.0 12.5 -0.2 31 7.4 SW 13 17 7 9 1012.0 1011.6 0.0
03/06:30am 15.8 12.7 0.0 34 6.8 SSE 6 7 3 4 1011.6 1011.2 0.0
03/06:00am 15.8 12.0 -0.4 33 6.9 SE 9 11 5 6 1011.3 1010.9 0.0
03/05:30am 17.3 14.1 -0.4 30 7.6 SSE 6 9 3 5 1011.2 1010.8 0.0
03/05:00am 18.2 14.4 -0.6 28 8.1 S 9 11 5 6 1011.2 1010.8 0.0
03/04:30am 18.5 14.6 -1.3 26 8.5 S 9 13 5 7 1011.3 1010.9 0.0
03/04:00am 20.5 16.6 -1.3 23 9.5 S 9 13 5 7 1011.3 1010.9 0.0
03/03:30am 21.6 17.4 -1.0 22 10.0 S 11 15 6 8 1011.0 1010.6 0.0
03/03:00am 23.2 17.1 -2.4 18 11.1 S 20 30 11 16 1011.1 1010.7 0.0
03/02:30am 23.6 18.0 -2.8 17 11.4 S 17 20 9 11 1011.5 1011.1 0.0
03/02:00am 24.5 18.9 -2.9 16 12.0 S 17 24 9 13 1011.7 1011.3 0.0
03/01:30am 22.9 18.2 -1.9 19 10.9 SSW 13 19 7 10 1011.9 1011.5 0.0
03/01:00am 21.2 16.6 -1.3 22 9.8 SSW 13 15 7 8 1011.7 1011.3 0.0
03/12:30am 21.0 16.3 -2.1 21 9.9 SW 13 15 7 8 1011.7 1011.3 0.0
03/12:00am 21.7 17.0 -1.6 21 10.2 SW 13 15 7 8 1011.7 1011.3 0.0
 
Date/Time
EDT
Temp
°C
App
Temp
°C
Dew
Point
Rel
Hum
%
Delta-T
°C
Wind Press
QNH
hPa
Press
MSL
hPa
Rain
since 9 am
mm
Dir
 
Spd
km/h
Gust
km/h
Spd
kts
Gust
kts
02/11:30pm 22.6 18.0 -0.8 21 10.4 SSW 13 15 7 8 1011.6 1011.2 0.0
02/11:00pm 22.9 18.4 -0.6 21 10.6 SSW 13 13 7 7 1011.8 1011.4 0.0
02/10:30pm 23.6 19.1 -0.6 20 10.9 SW 13 17 7 9 1011.8 1011.4 0.0
02/10:00pm 24.6 20.1 -0.5 19 11.5 SW 13 15 7 8 1011.7 1011.3 0.0
02/09:30pm 25.3 20.6 -1.5 17 12.1 SSW 13 15 7 8 1011.2 1010.8 0.0
02/09:00pm 26.1 21.4 -1.7 16 12.6 SW 13 15 7 8 1010.9 1010.5 0.0
02/08:30pm 28.0 23.4 -1.0 15 13.5 SW 13 15 7 8 1010.4 1010.0 0.0
02/08:00pm 30.3 25.7 -1.2 13 14.8 SSW 13 15 7 8 1010.0 1009.6 0.0
02/07:30pm 32.3 27.4 -0.7 12 15.9 SSW 15 20 8 11 1009.6 1009.2 0.0
02/07:00pm 33.1 27.5 -0.1 12 16.3 SSW 19 24 10 13 1009.3 1008.9 0.0
02/06:30pm 34.0 29.3 0.6 12 16.6 SSW 15 22 8 12 1009.0 1008.6 0.0
02/06:00pm 34.8 30.5 1.2 12 17.0 SSW 13 22 7 12 1009.0 1008.6 0.0
02/05:30pm 34.5 30.4 2.1 13 16.6 SW 13 20 7 11 1009.0 1008.6 0.0
02/05:00pm 34.4 31.0 2.0 13 16.6 S 9 19 5 10 1009.2 1008.8 0.0
02/04:30pm 33.9 29.9 2.7 14 16.0 S 13 24 7 13 1009.1 1008.7 0.0
02/04:00pm 34.2 30.2 2.9 14 16.2 SSW 13 24 7 13 1009.5 1009.1 0.0
02/03:30pm 33.9 30.4 3.6 15 15.8 SE 11 20 6 11 1009.8 1009.4 0.0
02/03:00pm 32.2 28.9 2.3 15 15.1 SE 9 19 5 10 1010.4 1010.0 0.0
02/02:30pm 31.6 27.4 1.8 15 14.9 SSE 13 20 7 11 1011.1 1010.7 0.0
02/02:00pm 31.2 26.7 2.4 16 14.5 S 15 22 8 12 1011.3 1010.9 0.0
02/01:30pm 31.7 28.1 2.8 16 14.7 SE 11 19 6 10 1011.5 1011.1 0.0
02/01:00pm 29.8 25.7 2.1 17 13.8 S 13 22 7 12 1012.2 1011.8 0.0
02/12:30pm 28.6 25.0 2.7 19 12.9 SSE 11 19 6 10 1013.0 1012.5 0.0
02/12:00pm 28.1 23.9 3.7 21 12.3 SSE 15 24 8 13 1013.4 1012.9 0.0
02/11:30am 26.6 22.0 3.8 23 11.4 SSE 17 24 9 13 1013.8 1013.3 0.0
02/11:00am 25.3 20.9 5.0 27 10.3 SSE 17 24 9 13 1014.0 1013.5 0.0
02/10:30am 24.1 20.1 5.0 29 9.6 SSE 15 22 8 12 1014.2 1013.7 0.0
02/10:00am 23.3 19.0 5.2 31 9.1 SSE 17 22 9 12 1014.0 1013.5 0.0
02/09:30am 21.9 17.1 4.9 33 8.4 SE 19 24 10 13 1013.7 1013.2 0.0
02/09:00am 20.2 15.4 4.7 36 7.6 SE 19 28 10 15 1013.6 1013.1 0.0
02/08:30am 19.1 14.3 4.8 39 6.9 SE 19 24 10 13 1013.5 1013.0 0.0
02/08:00am 17.7 13.3 5.0 43 6.1 SSE 17 22 9 12 1013.4 1012.9 0.0
02/07:30am 16.2 12.5 4.6 46 5.5 SSE 13 19 7 10 1013.4 1012.9 0.0
02/07:00am 16.3 12.1 4.0 44 5.7 SSE 15 19 8 10 1012.7 1012.3 0.0
02/06:30am 16.6 12.4 3.6 42 6.0 SSE 15 19 8 10 1012.5 1012.1 0.0
02/06:00am 16.9 12.6 3.2 40 6.3 SSE 15 19 8 10 1012.5 1012.1 0.0
02/05:30am 17.2 13.1 2.0 36 6.9 SSE 13 17 7 9 1012.4 1012.0 0.0
02/05:00am 18.3 14.0 3.0 36 7.1 SE 15 19 8 10 1012.4 1012.0 0.0
02/04:30am 17.9 13.4 2.2 35 7.2 SE 15 17 8 9 1012.5 1012.1 0.0
02/04:00am 18.4 14.6 1.9 33 7.5 SSE 11 17 6 9 1013.0 1012.5 0.0
02/03:30am 18.2 13.6 1.7 33 7.5 SSE 15 17 8 9 1012.7 1012.3 0.0
02/03:00am 18.0 13.8 1.5 33 7.4 S 13 17 7 9 1012.6 1012.2 0.0
02/02:30am 17.9 13.6 1.0 32 7.5 S 13 15 7 8 1012.7 1012.3 0.0
02/02:00am 18.0 14.0 0.6 31 7.7 S 11 13 6 7 1012.9 1012.4 0.0
02/01:30am 19.2 15.6 0.8 29 8.2 SSE 9 13 5 7 1012.7 1012.3 0.0
02/01:00am 20.1 16.1 0.5 27 8.8 SSE 11 13 6 7 1012.7 1012.3 0.0
02/12:30am 21.9 17.5 0.4 24 9.8 SSE 13 17 7 9 1012.6 1012.2 0.0
02/12:00am 22.4 17.6 0.3 23 10.1 SSE 15 22 8 12 1012.5 1012.1 0.0
 
Date/Time
EDT
Temp
°C
App
Temp
°C
Dew
Point
Rel
Hum
%
Delta-T
°C
Wind Press
QNH
hPa
Press
MSL
hPa
Rain
since 9 am
mm
Dir
 
Spd
km/h
Gust
km/h
Spd
kts
Gust
kts
01/11:30pm 23.2 18.0 0.3 22 10.5 SSE 17 22 9 12 1012.6 1012.2 0.0
01/11:00pm 23.9 18.7 0.3 21 10.9 S 17 22 9 12 1012.7 1012.3 0.0
01/10:30pm 24.6 19.3 -0.5 19 11.5 S 17 24 9 13 1012.5 1012.1 0.0
01/10:00pm 25.4 19.7 -0.6 18 11.9 SSE 19 28 10 15 1012.1 1011.7 0.0
01/09:30pm 25.5 20.5 -1.3 17 12.1 SSE 15 20 8 11 1011.8 1011.4 0.0
01/09:00pm 26.4 21.0 -1.4 16 12.7 S 17 22 9 12 1011.4 1011.0 0.0
01/08:30pm 27.2 21.3 -0.8 16 13.0 SSE 20 28 11 15 1010.8 1010.4 0.0
01/08:00pm 28.0 22.6 -1.0 15 13.5 SSE 17 26 9 14 1010.6 1010.2 0.0
01/07:30pm 29.3 22.0 0.0 15 14.0 S 28 35 15 19 1010.4 1010.0 0.0
01/07:00pm 29.6 23.1 0.2 15 14.1 S 24 30 13 16 1010.0 1009.6 0.0
01/06:30pm 30.6 23.7 0.1 14 14.7 S 26 35 14 19 1010.0 1009.6 0.0
01/06:00pm 31.0 24.3 1.4 15 14.7 S 26 35 14 19 1009.7 1009.3 0.0
01/05:30pm 31.0 24.0 3.9 18 14.0 S 30 41 16 22 1009.5 1009.1 0.0
01/05:00pm 32.2 26.8 7.8 22 13.5 S 26 41 14 22 1009.4 1009.0 0.0
01/04:30pm 32.0 26.1 7.6 22 13.4 S 28 43 15 23 1009.4 1009.0 0.0
01/04:00pm 31.5 24.9 7.9 23 13.1 S 32 44 17 24 1009.6 1009.2 0.0
01/03:30pm 31.1 24.6 8.2 24 12.7 S 32 46 17 25 1009.8 1009.4 0.0
01/03:00pm 30.7 24.3 8.4 25 12.4 S 32 50 17 27 1010.1 1009.7 0.0
01/02:55pm 30.9 24.7 8.0 24 12.6 S 30 50 16 27 1010.1 1009.7 0.0
01/02:30pm 30.8 25.1 8.5 25 12.4 S 28 39 15 21 1010.3 1009.9 0.0
01/02:00pm 29.9 23.7 7.7 25 12.1 S 30 48 16 26 1010.5 1010.1 0.0
01/01:30pm 29.0 22.7 7.6 26 11.6 S 30 39 16 21 1010.8 1010.4 0.0
01/01:00pm 28.3 22.0 9.1 30 10.7 S 32 44 17 24 1011.1 1010.7 0.0
01/12:30pm 28.2 21.8 9.5 31 10.4 S 33 50 18 27 1011.2 1010.8 0.0
01/12:12pm 28.3 22.4 10.5 33 10.1 S 32 50 17 27 1011.2 1010.8 0.0
01/12:00pm 27.4 21.4 10.2 34 9.7 S 32 44 17 24 1011.3 1010.9 0.0
01/11:30am 26.4 21.0 12.1 41 8.3 S 32 46 17 25 1011.4 1011.0 0.0
01/11:00am 25.9 21.1 14.7 50 6.7 S 33 46 18 25 1011.4 1011.0 0.0
01/10:30am 25.4 20.2 14.5 51 6.5 S 35 48 19 26 1011.0 1010.5 0.0
01/10:00am 25.0 20.2 15.6 56 5.7 S 35 48 19 26 1010.7 1010.2 0.0
01/09:39am 24.7 20.4 15.3 56 5.7 SSW 32 50 17 27 1010.5 1010.0 0.0
01/09:30am 24.4 18.8 15.6 58 5.3 SSW 39 50 21 27 1010.4 1009.9 0.0
01/09:00am 24.1 19.1 15.1 57 5.4 SSW 35 50 19 27 1009.8 1009.3 0.0
01/08:30am 23.8 18.2 14.5 56 5.5 SSW 37 48 20 26 1009.4 1008.8 0.0
01/08:00am 23.9 18.9 14.0 54 5.8 SSW 33 43 18 23 1008.7 1008.1 0.0
01/07:30am 24.2 19.9 13.1 50 6.5 SSW 28 37 15 20 1008.0 1007.4 0.0
01/07:00am 25.1 20.4 12.0 44 7.5 SSW 28 39 15 21 1007.3 1006.7 0.0
01/06:30am 25.9 20.6 11.3 40 8.3 SSW 30 39 16 21 1006.6 1006.0 0.0
01/06:00am 26.6 21.8 10.3 36 9.2 SSW 26 43 14 23 1006.3 1005.7 0.0
01/05:30am 27.1 22.6 9.9 34 9.6 SSW 24 33 13 18 1005.6 1005.0 0.0
01/05:00am 27.2 23.2 9.1 32 10.0 SSW 20 28 11 15 1005.2 1004.6 0.0
01/04:30am 28.0 23.6 8.8 30 10.6 SSW 22 30 12 16 1004.7 1004.1 0.0
01/04:00am 28.7 24.2 8.4 28 11.2 SSW 22 30 12 16 1004.5 1003.9 0.0
01/03:30am 29.3 24.8 8.4 27 11.5 SW 22 28 12 15 1004.5 1003.9 0.0
01/03:00am 28.4 25.4 7.6 27 11.3 WSW 13 17 7 9 1004.2 1003.6 0.0
01/02:30am 26.6 24.1 8.1 31 10.0 NW 11 11 6 6 1003.9 1003.3 0.0
01/02:00am 25.7 23.4 7.3 31 9.8 NNE 9 11 5 6 1003.9 1003.3 0.0
01/01:30am 27.0 25.1 6.9 28 10.7 N 6 7 3 4 1004.0 1003.4 0.0
01/01:00am 28.7 25.2 7.3 26 11.6 N 15 15 8 8 1004.0 1003.4 0.0
01/12:30am 29.3 25.6 7.8 26 11.7 N 17 17 9 9 1004.2 1003.6 0.0
01/12:00am 28.7 25.4 7.9 27 11.4 N 15 17 8 9 1004.6 1004.0 0.0
 
Date/Time
EDT
Temp
°C
App
Temp
°C
Dew
Point
Rel
Hum
%
Delta-T
°C
Wind Press
QNH
hPa
Press
MSL
hPa
Rain
since 9 am
mm
Dir
 
Spd
km/h
Gust
km/h
Spd
kts
Gust
kts
28/11:30pm 26.9 23.8 7.4 29 10.4 N 13 13 7 7 1004.7 1004.1 0.0
28/11:00pm 27.5 24.3 6.8 27 11.0 N 13 13 7 7 1004.8 1004.2 0.0
28/10:30pm 29.0 26.0 7.6 26 11.6 N 13 15 7 8 1004.8 1004.2 0.0
28/10:00pm 27.8 24.8 6.0 25 11.5 N 11 11 6 6 1005.0 1004.4 0.0
28/09:30pm 28.8 26.7 5.6 23 12.2 NNW 6 7 3 4 1004.8 1004.2 0.0
28/09:00pm 30.1 27.9 5.4 21 13.0 W 6 7 3 4 1004.6 1004.0 0.0
28/08:30pm 33.0 30.7 4.7 17 15.0 W 6 7 3 4 1004.3 1003.7 0.0
28/08:00pm 34.8 32.4 5.3 16 16.0 WSW 7 9 4 5 1004.1 1003.5 0.0
28/07:30pm 36.4 33.7 5.6 15 16.8 SSW 9 15 5 8 1003.8 1003.2 0.0
28/07:00pm 38.2 36.0 6.0 14 17.9 SW 7 13 4 7 1003.6 1003.0 0.0
28/06:30pm 38.1 34.0 6.0 14 17.8 SSW 17 26 9 14 1003.4 1002.8 0.0

Other Formats:

Comma delimited format used in spreadsheet applications
http://www.bom.gov.au/fwo/IDN60801/IDN60801.95695.axf

JavaScript Object Notation format (JSON) in row-major order
http://www.bom.gov.au/fwo/IDN60801/IDN60801.95695.json